Time;durP1;ratioP1;P1;durP2;ratioP2;P2;SDS_P1;SDS_P2;PMS_P1;PMS_P2;Temp;Humidity;BMP_temperature;BMP_pressure;BME280_temperature;BME280_humidity;BME280_pressure;Samples;Min_cycle;Max_cycle;Signal;HPM_P1;HPM_P2
2022/08/09 01:52:24;;;;;;;;;;;;;;;19.17;65.86;100722.45;1445388;90;20270;-81
2022/08/09 01:54:53;;;;;;;;;;;;;;;19.15;65.48;100723.14;1454313;90;20360;-81
2022/08/09 01:57:22;;;;;;;;;;;;;;;19.10;66.18;100725.09;1450356;90;20292;-81
2022/08/09 01:59:50;;;;;;;;;;;;;;;19.07;66.17;100724.12;1458116;89;20814;-81
2022/08/09 02:02:17;;;;;;;;;;;;;;;19.09;65.90;100723.94;1442224;90;20286;-81
2022/08/09 02:04:44;;;;;;;;;;;;;;;19.11;65.74;100724.58;1456579;89;20857;-81
2022/08/09 02:07:14;;;;;;;;;;;;;;;19.14;65.55;100722.33;1454203;90;20278;-81
2022/08/09 02:09:44;;;;;;;;;;;;;;;19.15;65.81;100730.67;1454365;89;20293;-81
2022/08/09 02:12:12;;;;;;;;;;;;;;;19.18;65.44;100726.77;1454629;89;20315;-81
2022/08/09 02:14:41;;;;;;;;;;;;;;;19.16;65.74;100724.80;1453277;90;20541;-81
2022/08/09 02:17:08;;;;;;;;;;;;;;;19.13;65.63;100724.70;1452301;90;20235;-81
2022/08/09 02:19:34;;;;;;;;;;;;;;;19.14;65.49;100721.50;1449655;90;20228;-81
2022/08/09 02:22:04;;;;;;;;;;;;;;;19.09;65.94;100720.73;1449248;90;20299;-81
2022/08/09 02:24:38;;;;;;;;;;;;;;;19.05;66.15;100730.73;1450490;89;20242;-81
2022/08/09 02:27:03;;;;;;;;;;;;;;;19.04;65.95;100734.42;1442329;90;21238;-82
2022/08/09 02:29:32;;;;;;;;;;;;;;;19.02;65.98;100732.44;1451995;89;20837;-81
2022/08/09 02:32:00;;;;;;;;;;;;;;;19.00;65.99;100725.94;1454778;90;20331;-81
2022/08/09 02:34:29;;;;;;;;;;;;;;;18.98;66.09;100725.81;1440719;89;20367;-81
2022/08/09 02:36:58;;;;;;;;;;;;;;;18.96;66.04;100729.20;1447224;90;20353;-81
2022/08/09 02:39:30;;;;;;;;;;;;;;;18.91;66.25;100731.96;1454641;90;20322;-81
2022/08/09 02:41:58;;;;;;;;;;;;;;;18.90;65.76;100727.63;1444490;90;20329;-82
2022/08/09 02:44:31;;;;;;;;;;;;;;;18.87;66.11;100730.70;1452118;90;20264;-81
2022/08/09 02:46:59;;;;;;;;;;;;;;;18.86;66.26;100730.38;1452033;90;20241;-81
2022/08/09 02:49:26;;;;;;;;;;;;;;;18.82;66.60;100729.63;1442932;89;20615;-81
2022/08/09 02:51:55;;;;;;;;;;;;;;;18.78;66.77;100729.16;1450366;89;20770;-81
2022/08/09 02:54:22;;;;;;;;;;;;;;;18.76;66.57;100731.72;1449677;89;20850;-81
2022/08/09 02:56:50;;;;;;;;;;;;;;;18.76;66.79;100741.11;1449295;90;20397;-81
2022/08/09 02:59:17;;;;;;;;;;;;;;;18.79;66.72;100732.67;1454608;90;20336;-81
2022/08/09 03:01:44;;;;;;;;;;;;;;;18.77;66.88;100734.73;1441427;90;20338;-81
2022/08/09 03:04:10;;;;;;;;;;;;;;;18.76;66.65;100736.59;1442541;90;20786;-82
2022/08/09 03:06:36;;;;;;;;;;;;;;;18.76;66.71;100744.64;1451091;90;20390;-81
2022/08/09 03:09:03;;;;;;;;;;;;;;;18.75;66.86;100744.30;1452283;89;20382;-82
2022/08/09 03:11:29;;;;;;;;;;;;;;;18.72;66.91;100744.14;1451075;90;20249;-81
2022/08/09 03:13:56;;;;;;;;;;;;;;;18.70;66.85;100741.33;1457259;90;20271;-81
2022/08/09 03:16:22;;;;;;;;;;;;;;;18.68;66.96;100744.22;1442400;90;20338;-81
2022/08/09 03:18:48;;;;;;;;;;;;;;;18.62;67.50;100745.52;1452852;90;20337;-81
2022/08/09 03:21:15;;;;;;;;;;;;;;;18.61;67.38;100748.68;1457877;90;20256;-81
2022/08/09 03:23:45;;;;;;;;;;;;;;;18.59;67.30;100745.91;1451737;90;20353;-81
2022/08/09 03:26:10;;;;;;;;;;;;;;;18.55;67.41;100761.52;1452250;89;20393;-81
2022/08/09 03:28:37;;;;;;;;;;;;;;;18.51;67.53;100750.05;1447440;90;20352;-81
2022/08/09 03:31:03;;;;;;;;;;;;;;;18.44;67.75;100751.30;1447283;89;20220;-81
2022/08/09 03:33:30;;;;;;;;;;;;;;;18.43;67.76;100755.84;1461144;89;20301;-81
2022/08/09 03:35:56;;;;;;;;;;;;;;;18.41;68.04;100755.22;1453452;90;20292;-82
2022/08/09 03:38:22;;;;;;;;;;;;;;;18.39;67.92;100755.09;1453371;90;20270;-82
2022/08/09 03:40:48;;;;;;;;;;;;;;;18.35;68.20;100751.94;1442647;89;20316;-81
2022/08/09 03:43:13;;;;;;;;;;;;;;;18.34;68.27;100747.61;1445964;89;20285;-81
2022/08/09 03:45:39;;;;;;;;;;;;;;;18.32;68.78;100746.96;1453284;89;20286;-81
2022/08/09 03:48:06;;;;;;;;;;;;;;;18.33;68.52;100749.16;1454845;89;20257;-81
2022/08/09 03:50:34;;;;;;;;;;;;;;;18.32;68.46;100742.95;1458252;90;20364;-81
2022/08/09 03:53:02;;;;;;;;;;;;;;;18.35;68.47;100742.56;1452550;90;20376;-81
2022/08/09 03:55:28;;;;;;;;;;;;;;;18.37;68.33;100743.20;1449963;90;20874;-81
2022/08/09 03:57:55;;;;;;;;;;;;;;;18.40;68.35;100739.32;1441211;89;20367;-81
2022/08/09 04:00:21;;;;;;;;;;;;;;;18.43;68.06;100742.44;1445282;90;20320;-81
2022/08/09 04:02:48;;;;;;;;;;;;;;;18.47;67.71;100741.05;1447751;90;21513;-81
2022/08/09 04:05:14;;;;;;;;;;;;;;;18.55;67.29;100737.91;1425752;90;20969;-81
2022/08/09 04:07:40;;;;;;;;;;;;;;;18.57;67.36;100737.22;1448739;90;20242;-81
2022/08/09 04:10:07;;;;;;;;;;;;;;;18.60;67.75;100740.84;1437808;90;20887;-81
2022/08/09 04:12:48;;;;;;;;;;;;;;;18.61;67.05;100739.30;1445441;90;20592;-81
2022/08/09 04:15:15;;;;;;;;;;;;;;;18.63;66.89;100741.80;1443056;90;20799;-81
2022/08/09 04:17:42;;;;;;;;;;;;;;;18.64;67.19;100748.33;1444096;90;20242;-81
2022/08/09 04:20:10;;;;;;;;;;;;;;;18.61;66.98;100749.20;1452177;90;20445;-81
2022/08/09 04:22:37;;;;;;;;;;;;;;;18.63;66.75;100749.33;1447450;90;20450;-82
2022/08/09 04:25:04;;;;;;;;;;;;;;;18.61;66.50;100756.72;1451005;90;20741;-81
2022/08/09 04:27:30;;;;;;;;;;;;;;;18.62;66.98;100750.36;1448098;90;20316;-81
2022/08/09 04:29:56;;;;;;;;;;;;;;;18.65;67.60;100752.66;1448720;90;20762;-81
2022/08/09 04:32:23;;;;;;;;;;;;;;;18.67;67.69;100753.78;1440918;90;20386;-81
2022/08/09 04:34:49;;;;;;;;;;;;;;;18.67;67.75;100755.13;1442275;90;20271;-82
2022/08/09 04:37:15;;;;;;;;;;;;;;;18.63;66.89;100752.52;1438994;90;20279;-82
2022/08/09 04:39:41;;;;;;;;;;;;;;;18.64;67.14;100754.17;1442594;90;20756;-82
2022/08/09 04:42:06;;;;;;;;;;;;;;;18.68;68.06;100762.16;1449810;90;20293;-82
2022/08/09 04:44:32;;;;;;;;;;;;;;;18.73;67.10;100753.04;1439083;90;20272;-81
2022/08/09 04:46:58;;;;;;;;;;;;;;;18.77;67.80;100748.97;1447580;90;20367;-82
2022/08/09 04:49:25;;;;;;;;;;;;;;;18.80;66.18;100753.94;1450600;90;20264;-81
2022/08/09 04:51:50;;;;;;;;;;;;;;;18.84;65.97;100755.20;1453511;90;20301;-81
2022/08/09 04:54:17;;;;;;;;;;;;;;;18.92;65.89;100759.09;1447864;90;20279;-82
2022/08/09 04:56:44;;;;;;;;;;;;;;;19.01;65.73;100756.27;1443613;90;20998;-81
2022/08/09 04:59:10;;;;;;;;;;;;;;;19.10;65.40;100759.11;1449321;90;20293;-82
2022/08/09 05:01:36;;;;;;;;;;;;;;;19.20;65.77;100759.61;1456829;90;20263;-81
2022/08/09 05:04:02;;;;;;;;;;;;;;;19.27;65.06;100747.05;1450162;90;20272;-81
2022/08/09 05:06:28;;;;;;;;;;;;;;;19.39;64.99;100748.19;1452575;90;20250;-81
2022/08/09 05:08:55;;;;;;;;;;;;;;;19.54;65.33;100743.20;1444241;90;20256;-82
2022/08/09 05:11:22;;;;;;;;;;;;;;;19.71;64.48;100738.33;1440120;90;20330;-82
2022/08/09 05:13:48;;;;;;;;;;;;;;;19.90;63.58;100742.14;1445398;90;20919;-82
2022/08/09 05:16:14;;;;;;;;;;;;;;;20.04;62.20;100747.88;1454674;90;20286;-82
2022/08/09 05:18:39;;;;;;;;;;;;;;;20.18;61.48;100752.25;1446282;90;20286;-82
2022/08/09 05:21:06;;;;;;;;;;;;;;;20.34;61.80;100758.27;1451916;90;20910;-82
2022/08/09 05:23:32;;;;;;;;;;;;;;;20.50;61.24;100765.97;1454100;90;20838;-82
2022/08/09 05:25:58;;;;;;;;;;;;;;;20.64;60.67;100766.84;1436038;90;20235;-82
2022/08/09 05:28:23;;;;;;;;;;;;;;;20.83;59.54;100773.25;1449247;90;20323;-82
2022/08/09 05:30:49;;;;;;;;;;;;;;;20.91;58.57;100772.53;1448948;90;20866;-82
2022/08/09 05:33:15;;;;;;;;;;;;;;;21.01;59.20;100774.82;1442498;90;20360;-82
2022/08/09 05:35:41;;;;;;;;;;;;;;;21.17;58.83;100782.45;1443114;90;20785;-82
2022/08/09 05:38:07;;;;;;;;;;;;;;;21.19;58.30;100778.22;1449412;90;20389;-81
2022/08/09 05:40:33;;;;;;;;;;;;;;;21.23;57.65;100778.62;1452292;90;20382;-82
2022/08/09 05:42:59;;;;;;;;;;;;;;;21.28;58.02;100781.52;1440421;90;20287;-82
2022/08/09 05:45:25;;;;;;;;;;;;;;;21.32;58.21;100777.35;1449851;90;20489;-82
2022/08/09 05:47:50;;;;;;;;;;;;;;;21.35;57.72;100775.09;1447649;90;20294;-82
2022/08/09 05:50:16;;;;;;;;;;;;;;;21.34;57.06;100775.29;1436889;90;20807;-82
2022/08/09 05:52:43;;;;;;;;;;;;;;;21.42;57.03;100769.72;1441456;90;20338;-82
2022/08/09 05:55:10;;;;;;;;;;;;;;;21.46;56.93;100773.63;1445277;89;20257;-82
2022/08/09 05:57:37;;;;;;;;;;;;;;;21.45;56.44;100776.03;1448812;89;20334;-82
2022/08/09 06:00:06;;;;;;;;;;;;;;;21.52;56.18;100774.16;1452068;89;20330;-82
2022/08/09 06:02:33;;;;;;;;;;;;;;;21.60;56.62;100777.94;1440333;90;20346;-82
2022/08/09 06:04:59;;;;;;;;;;;;;;;21.74;56.38;100769.83;1453453;90;20359;-82
2022/08/09 06:07:26;;;;;;;;;;;;;;;21.87;56.67;100767.09;1448938;89;20286;-82
2022/08/09 06:09:52;;;;;;;;;;;;;;;21.96;55.45;100764.98;1444157;89;20256;-82
2022/08/09 06:12:18;;;;;;;;;;;;;;;22.03;55.59;100771.98;1447147;90;20316;-82
2022/08/09 06:14:44;;;;;;;;;;;;;;;22.09;56.23;100773.81;1453297;90;20301;-81
2022/08/09 06:17:10;;;;;;;;;;;;;;;22.12;55.92;100760.95;1454126;89;20345;-82
2022/08/09 06:19:37;;;;;;;;;;;;;;;22.24;55.99;100766.84;1450073;89;20249;-81
2022/08/09 06:22:03;;;;;;;;;;;;;;;22.28;55.71;100772.63;1451810;90;20249;-82
2022/08/09 06:24:29;;;;;;;;;;;;;;;22.25;55.32;100769.02;1455221;89;20280;-82
2022/08/09 06:26:56;;;;;;;;;;;;;;;22.32;55.16;100773.01;1453444;90;20213;-82
2022/08/09 06:29:22;;;;;;;;;;;;;;;22.24;54.79;100779.47;1461733;89;20308;-82
2022/08/09 06:31:48;;;;;;;;;;;;;;;22.32;54.93;100777.05;1443105;90;20287;-82
2022/08/09 06:34:14;;;;;;;;;;;;;;;22.20;54.78;100773.69;1450510;90;20293;-82
2022/08/09 06:36:40;;;;;;;;;;;;;;;22.27;54.71;100775.84;1448114;89;20896;-82
2022/08/09 06:39:09;;;;;;;;;;;;;;;22.28;54.20;100776.14;1455398;89;20300;-82
2022/08/09 06:41:33;;;;;;;;;;;;;;;22.35;54.42;100782.83;1442862;90;20308;-82
2022/08/09 06:43:59;;;;;;;;;;;;;;;22.48;54.32;100779.24;1446104;90;20278;-81
2022/08/09 06:46:25;;;;;;;;;;;;;;;22.51;54.05;100775.58;1451130;89;20271;-82
2022/08/09 06:48:51;;;;;;;;;;;;;;;22.61;54.03;100775.61;1458276;89;20227;-82
2022/08/09 06:51:17;;;;;;;;;;;;;;;22.74;53.98;100779.05;1453123;89;20791;-82
2022/08/09 06:53:43;;;;;;;;;;;;;;;22.82;53.85;100778.48;1439501;89;20330;-82
2022/08/09 06:56:09;;;;;;;;;;;;;;;22.89;53.61;100780.59;1448462;90;20271;-82
2022/08/09 06:58:35;;;;;;;;;;;;;;;22.99;53.65;100789.06;1444409;90;20340;-82
2022/08/09 07:01:01;;;;;;;;;;;;;;;23.03;52.81;100786.74;1459436;90;20257;-82
2022/08/09 07:03:26;;;;;;;;;;;;;;;23.03;52.51;100788.09;1452737;90;20353;-82
2022/08/09 07:05:59;;;;;;;;;;;;;;;23.17;52.23;100793.67;1450579;90;20799;-82
2022/08/09 07:08:25;;;;;;;;;;;;;;;23.18;52.39;100787.22;1449366;90;20307;-82
2022/08/09 07:10:51;;;;;;;;;;;;;;;23.29;52.03;100793.24;1445641;90;20711;-82
2022/08/09 07:13:17;;;;;;;;;;;;;;;23.52;52.03;100788.54;1452399;89;20322;-82
2022/08/09 07:15:43;;;;;;;;;;;;;;;23.78;51.54;100787.45;1451866;90;20808;-82
2022/08/09 07:18:08;;;;;;;;;;;;;;;23.82;50.05;100783.25;1443495;90;20866;-82
2022/08/09 07:20:34;;;;;;;;;;;;;;;24.06;49.67;100777.97;1455008;90;20293;-82
2022/08/09 07:23:01;;;;;;;;;;;;;;;24.25;49.86;100789.55;1448612;90;20286;-82
2022/08/09 07:25:27;;;;;;;;;;;;;;;24.36;48.51;100790.66;1451127;90;20525;-82
2022/08/09 07:27:53;;;;;;;;;;;;;;;24.68;49.06;100790.71;1451451;89;20278;-83
2022/08/09 07:30:19;;;;;;;;;;;;;;;24.72;48.32;100797.86;1455881;89;20226;-82
2022/08/09 07:32:45;;;;;;;;;;;;;;;24.73;48.56;100804.38;1445858;89;20300;-82
2022/08/09 07:35:12;;;;;;;;;;;;;;;24.51;48.62;100812.72;1452067;89;20264;-82
2022/08/09 07:37:40;;;;;;;;;;;;;;;24.30;49.28;100813.50;1453728;89;20293;-82
2022/08/09 07:40:08;;;;;;;;;;;;;;;24.10;49.96;100818.34;1456487;90;20293;-82
2022/08/09 07:42:52;;;;;;;;;;;;;;;23.85;49.94;100811.18;1444203;89;20903;-82
2022/08/09 07:45:24;;;;;;;;;;;;;;;23.82;50.22;100817.54;1454283;89;20300;-82
2022/08/09 07:47:46;;;;;;;;;;;;;;;23.77;50.22;100808.77;1442422;90;20986;-82
2022/08/09 07:50:12;;;;;;;;;;;;;;;23.70;50.87;100808.51;1433885;90;20257;-82
2022/08/09 07:52:40;;;;;;;;;;;;;;;23.61;51.02;100816.91;1455003;90;20241;-82
2022/08/09 07:55:06;;;;;;;;;;;;;;;23.56;51.32;100819.98;1448395;89;20293;-82
2022/08/09 07:57:33;;;;;;;;;;;;;;;23.55;51.79;100831.84;1452723;90;20211;-83
2022/08/09 07:59:59;;;;;;;;;;;;;;;23.43;52.26;100829.87;1451572;89;20264;-82
2022/08/09 08:02:25;;;;;;;;;;;;;;;23.47;51.93;100836.18;1446118;90;20285;-82
2022/08/09 08:04:50;;;;;;;;;;;;;;;23.53;51.98;100838.80;1447967;90;20269;-82
2022/08/09 08:07:16;;;;;;;;;;;;;;;23.49;51.85;100835.44;1444879;89;20277;-82
2022/08/09 08:09:42;;;;;;;;;;;;;;;23.31;52.10;100839.77;1448501;89;20242;-82
2022/08/09 08:12:08;;;;;;;;;;;;;;;23.29;52.19;100833.75;1459391;90;20352;-82
2022/08/09 08:14:34;;;;;;;;;;;;;;;23.35;52.79;100839.61;1456247;90;20322;-82
2022/08/09 08:16:59;;;;;;;;;;;;;;;23.30;52.33;100838.62;1455085;90;20769;-82
2022/08/09 08:19:25;;;;;;;;;;;;;;;23.25;53.07;100835.25;1449649;90;20228;-82
2022/08/09 08:21:51;;;;;;;;;;;;;;;23.27;52.79;100835.84;1458319;89;20711;-82
2022/08/09 08:24:17;;;;;;;;;;;;;;;23.37;53.00;100838.05;1454894;89;20331;-82
2022/08/09 08:26:43;;;;;;;;;;;;;;;23.53;53.25;100828.00;1454486;90;21084;-82
2022/08/09 08:29:09;;;;;;;;;;;;;;;23.72;53.25;100830.23;1457900;89;20301;-82
2022/08/09 08:31:35;;;;;;;;;;;;;;;23.88;52.21;100832.88;1457165;89;20250;-82
2022/08/09 08:34:01;;;;;;;;;;;;;;;23.78;51.63;100841.50;1451082;90;20316;-82
2022/08/09 08:36:26;;;;;;;;;;;;;;;23.92;51.45;100844.88;1453916;90;20844;-82
2022/08/09 08:38:52;;;;;;;;;;;;;;;24.11;51.71;100840.30;1453905;89;20352;-82
2022/08/09 08:41:19;;;;;;;;;;;;;;;24.29;51.25;100843.50;1450444;89;20799;-82
2022/08/09 08:43:45;;;;;;;;;;;;;;;24.45;51.03;100844.22;1445215;89;20338;-82
2022/08/09 08:46:13;;;;;;;;;;;;;;;24.57;50.25;100837.53;1449118;90;20271;-82
2022/08/09 08:48:41;;;;;;;;;;;;;;;24.54;50.05;100839.31;1457600;90;20882;-82
2022/08/09 08:51:07;;;;;;;;;;;;;;;24.48;50.08;100842.94;1449418;89;20299;-82
2022/08/09 08:53:34;;;;;;;;;;;;;;;24.45;50.02;100841.52;1451576;89;20814;-82
2022/08/09 08:56:01;;;;;;;;;;;;;;;24.49;50.48;100839.20;1445557;90;20242;-82
2022/08/09 08:58:28;;;;;;;;;;;;;;;24.32;50.45;100832.22;1444895;90;20354;-82
2022/08/09 09:00:56;;;;;;;;;;;;;;;24.16;50.77;100836.36;1448075;90;20719;-82
2022/08/09 09:03:24;;;;;;;;;;;;;;;24.26;51.15;100835.31;1448758;90;20292;-82
2022/08/09 09:05:51;;;;;;;;;;;;;;;24.48;51.61;100829.41;1442938;90;20300;-82
2022/08/09 09:08:19;;;;;;;;;;;;;;;24.64;50.82;100827.42;1439529;90;20377;-82
2022/08/09 09:10:46;;;;;;;;;;;;;;;24.76;50.45;100831.51;1441699;90;20309;-82
2022/08/09 09:13:13;;;;;;;;;;;;;;;24.92;50.45;100830.84;1444755;90;20280;-82
2022/08/09 09:15:39;;;;;;;;;;;;;;;25.06;50.52;100830.11;1444946;90;20242;-82
2022/08/09 09:18:05;;;;;;;;;;;;;;;25.16;49.70;100829.02;1451324;90;20397;-82
2022/08/09 09:20:34;;;;;;;;;;;;;;;25.29;49.17;100831.19;1449513;90;20264;-82
2022/08/09 09:23:00;;;;;;;;;;;;;;;25.19;49.22;100825.02;1448805;90;20241;-82
2022/08/09 09:25:32;;;;;;;;;;;;;;;25.42;49.82;100825.02;1444298;90;20851;-83
2022/08/09 09:27:59;;;;;;;;;;;;;;;25.31;49.37;100824.48;1446701;90;20404;-82
2022/08/09 09:30:25;;;;;;;;;;;;;;;25.24;49.55;100828.39;1446599;90;20243;-82
2022/08/09 09:33:06;;;;;;;;;;;;;;;25.05;49.74;100823.56;1444282;90;20323;-82
2022/08/09 09:35:32;;;;;;;;;;;;;;;24.86;49.48;100826.87;1446972;90;20339;-82
2022/08/09 09:37:59;;;;;;;;;;;;;;;25.06;50.12;100823.84;1446658;90;20234;-83
2022/08/09 09:40:42;;;;;;;;;;;;;;;25.02;49.57;100824.03;1449773;90;20263;-82
2022/08/09 09:43:09;;;;;;;;;;;;;;;25.05;50.00;100831.68;1440376;90;20243;-82
2022/08/09 09:45:52;;;;;;;;;;;;;;;25.13;49.54;100828.10;1441309;90;20249;-82
2022/08/09 09:48:20;;;;;;;;;;;;;;;25.08;49.61;100830.68;1407117;90;20257;-82
2022/08/09 09:50:49;;;;;;;;;;;;;;;25.18;49.67;100837.74;1428511;90;20271;-82
2022/08/09 09:53:17;;;;;;;;;;;;;;;25.17;49.79;100836.61;1450360;90;20273;-82
2022/08/09 09:55:52;;;;;;;;;;;;;;;25.18;49.29;100830.97;1459800;90;20322;-82
2022/08/09 09:58:19;;;;;;;;;;;;;;;25.31;49.71;100834.50;1446706;90;20242;-82
2022/08/09 10:00:48;;;;;;;;;;;;;;;25.45;49.40;100834.55;1447598;89;20739;-82
2022/08/09 10:03:13;;;;;;;;;;;;;;;25.69;49.56;100831.83;1448495;90;20827;-82
2022/08/09 10:05:57;;;;;;;;;;;;;;;26.20;48.59;100828.31;1446005;90;20286;-82
2022/08/09 10:08:23;;;;;;;;;;;;;;;26.39;47.52;100824.88;1451555;89;20799;-83
2022/08/09 10:10:50;;;;;;;;;;;;;;;26.41;47.20;100825.98;1451920;89;20279;-82
2022/08/09 10:13:17;;;;;;;;;;;;;;;26.52;47.03;100825.95;1444748;90;20811;-82
2022/08/09 10:15:50;;;;;;;;;;;;;;;26.79;47.68;100822.64;1447534;90;20428;-82
2022/08/09 10:18:17;;;;;;;;;;;;;;;27.02;46.28;100821.66;1452213;89;20794;-82
2022/08/09 10:20:43;;;;;;;;;;;;;;;26.97;45.75;100820.22;1443632;90;20442;-82
2022/08/09 10:23:17;;;;;;;;;;;;;;;26.94;46.22;100822.89;1448172;90;20250;-82
2022/08/09 10:25:45;;;;;;;;;;;;;;;27.08;46.23;100814.42;1458279;90;20277;-83
2022/08/09 10:28:11;;;;;;;;;;;;;;;27.18;45.56;100818.66;1454769;90;20278;-83
2022/08/09 10:30:37;;;;;;;;;;;;;;;27.21;45.71;100816.80;1448730;89;20725;-83
2022/08/09 10:33:03;;;;;;;;;;;;;;;27.27;45.25;100813.09;1448072;89;20307;-82
2022/08/09 10:35:30;;;;;;;;;;;;;;;27.31;45.05;100812.90;1451926;90;20310;-82
2022/08/09 10:38:00;;;;;;;;;;;;;;;27.38;45.25;100807.27;1452897;90;20370;-82
2022/08/09 10:40:28;;;;;;;;;;;;;;;27.29;45.23;100816.39;1452325;89;20293;-83
2022/08/09 10:42:54;;;;;;;;;;;;;;;27.15;45.43;100807.75;1443159;89;20257;-82
2022/08/09 10:45:20;;;;;;;;;;;;;;;27.31;45.63;100805.29;1449804;90;20256;-82
2022/08/09 10:48:03;;;;;;;;;;;;;;;27.33;45.29;100808.02;1456849;89;20338;-83
2022/08/09 10:51:08;;;;;;;;;;;;;;;27.18;44.93;100811.88;1452825;90;20262;-82
2022/08/09 10:53:43;;;;;;;;;;;;;;;27.21;45.34;100805.94;1444888;90;21020;-82
2022/08/09 10:56:24;;;;;;;;;;;;;;;27.29;44.81;100806.87;1443426;89;20742;-81
2022/08/09 10:58:52;;;;;;;;;;;;;;;27.27;44.70;100795.97;1445215;89;20249;-82
2022/08/09 11:01:38;;;;;;;;;;;;;;;27.43;45.25;100793.23;1453645;89;20324;-82
2022/08/09 11:04:13;;;;;;;;;;;;;;;27.46;44.61;100791.91;1441396;89;20292;-82
2022/08/09 11:06:44;;;;;;;;;;;;;;;27.38;45.09;100798.58;1453463;89;20272;-82
2022/08/09 11:09:12;;;;;;;;;;;;;;;27.30;44.91;100786.77;1452738;89;20219;-82
2022/08/09 11:11:58;;;;;;;;;;;;;;;27.14;45.43;100788.97;1441774;89;20282;-82
2022/08/09 11:14:47;;;;;;;;;;;;;;;26.98;45.23;100784.64;1464604;90;20897;-82
2022/08/09 11:17:17;;;;;;;;;;;;;;;27.23;45.98;100783.43;1447910;89;20419;-82
2022/08/09 11:19:56;;;;;;;;;;;;;;;27.53;45.72;100784.91;1453388;90;20270;-82
2022/08/09 11:22:27;;;;;;;;;;;;;;;27.88;45.14;100771.00;1453371;89;20338;-82
2022/08/09 11:25:13;;;;;;;;;;;;;;;27.96;44.39;100760.19;1434840;90;20307;-82
2022/08/09 11:27:42;;;;;;;;;;;;;;;27.88;44.77;100770.45;1451266;90;20278;-82
2022/08/09 11:30:10;;;;;;;;;;;;;;;28.10;44.15;100764.15;1445429;90;20330;-83
2022/08/09 11:32:44;;;;;;;;;;;;;;;28.03;43.21;100756.74;1457874;89;20799;-82
2022/08/09 11:35:25;;;;;;;;;;;;;;;27.90;43.57;100746.52;1450302;89;20375;-82
2022/08/09 11:37:52;;;;;;;;;;;;;;;28.06;44.11;100750.25;1456802;89;21560;-83
2022/08/09 11:40:30;;;;;;;;;;;;;;;28.15;44.24;100750.61;1458547;90;20279;-82
2022/08/09 11:42:58;;;;;;;;;;;;;;;28.40;43.89;100743.23;1450003;89;20242;-83
2022/08/09 11:45:37;;;;;;;;;;;;;;;28.77;42.85;100739.22;1450162;89;20292;-83
2022/08/09 11:48:02;;;;;;;;;;;;;;;28.96;41.87;100729.25;1448054;89;20307;-83
2022/08/09 11:50:31;;;;;;;;;;;;;;;29.05;42.38;100726.33;1459594;90;20909;-82
2022/08/09 11:53:03;;;;;;;;;;;;;;;29.37;42.08;100730.31;1459953;89;20733;-83
2022/08/09 11:55:36;;;;;;;;;;;;;;;29.58;40.64;100723.62;1444281;89;20717;-82
2022/08/09 11:58:22;;;;;;;;;;;;;;;29.75;40.73;100723.41;1447770;90;20270;-83
2022/08/09 12:01:07;;;;;;;;;;;;;;;29.35;40.24;100722.16;1452295;89;20242;-83
2022/08/09 12:03:33;;;;;;;;;;;;;;;29.60;41.03;100719.50;1460531;90;20502;-82
2022/08/09 12:06:01;;;;;;;;;;;;;;;29.83;39.25;100715.52;1454967;90;20412;-83
2022/08/09 12:08:28;;;;;;;;;;;;;;;29.86;39.23;100711.44;1447096;90;20338;-83
2022/08/09 12:10:56;;;;;;;;;;;;;;;29.83;39.04;100714.70;1446116;90;20367;-82
2022/08/09 12:13:39;;;;;;;;;;;;;;;29.87;39.38;100712.55;1450847;89;20353;-82
2022/08/09 12:16:09;;;;;;;;;;;;;;;29.73;39.21;100718.78;1447153;90;20278;-83
2022/08/09 12:18:36;;;;;;;;;;;;;;;29.49;38.68;100713.73;1445669;90;20271;-82
2022/08/09 12:21:05;;;;;;;;;;;;;;;29.78;39.02;100715.53;1450717;89;20315;-83
2022/08/09 12:23:32;;;;;;;;;;;;;;;29.72;39.27;100721.22;1453702;90;20300;-83
2022/08/09 12:25:59;;;;;;;;;;;;;;;29.96;38.51;100712.02;1455366;89;20865;-82
2022/08/09 12:28:25;;;;;;;;;;;;;;;30.13;38.46;100702.49;1451073;89;20211;-83
2022/08/09 12:30:52;;;;;;;;;;;;;;;29.68;38.72;100704.58;1444166;89;20904;-83
2022/08/09 12:33:19;;;;;;;;;;;;;;;29.40;39.02;100713.98;1449709;89;20379;-83
2022/08/09 12:35:46;;;;;;;;;;;;;;;29.51;39.07;100704.75;1455362;89;20301;-83
2022/08/09 12:38:19;;;;;;;;;;;;;;;29.27;38.64;100702.22;1449494;89;20293;-82
2022/08/09 12:40:47;;;;;;;;;;;;;;;29.14;39.18;100696.69;1452150;89;20270;-83
2022/08/09 12:43:14;;;;;;;;;;;;;;;29.44;39.41;100698.74;1447661;90;20467;-82
2022/08/09 12:45:41;;;;;;;;;;;;;;;29.61;38.50;100699.35;1452940;90;20307;-83
2022/08/09 12:48:08;;;;;;;;;;;;;;;29.39;39.20;100699.53;1444387;89;20851;-83
2022/08/09 12:50:35;;;;;;;;;;;;;;;29.76;39.09;100690.97;1455355;89;20330;-82
2022/08/09 12:53:01;;;;;;;;;;;;;;;29.79;38.66;100691.80;1442331;89;20299;-83
2022/08/09 12:55:31;;;;;;;;;;;;;;;29.53;38.38;100695.77;1458778;89;20682;-83
2022/08/09 12:57:57;;;;;;;;;;;;;;;29.80;38.72;100689.33;1452024;89;20350;-83
2022/08/09 13:00:33;;;;;;;;;;;;;;;29.42;38.04;100690.81;1434666;90;20353;-83
2022/08/09 13:03:01;;;;;;;;;;;;;;;29.73;38.25;100689.59;1446472;90;20829;-82
2022/08/09 13:05:48;;;;;;;;;;;;;;;30.10;38.16;100685.84;1450744;90;20278;-82
2022/08/09 13:08:19;;;;;;;;;;;;;;;30.50;37.45;100697.35;1441998;90;20301;-83
2022/08/09 13:10:57;;;;;;;;;;;;;;;30.59;36.94;100694.88;1452011;90;20345;-83
2022/08/09 13:13:39;;;;;;;;;;;;;;;30.34;36.31;100705.27;1443197;90;20278;-83
2022/08/09 13:16:07;;;;;;;;;;;;;;;30.62;36.22;100698.98;1444677;90;20271;-83
2022/08/09 13:18:46;;;;;;;;;;;;;;;30.92;36.29;100701.67;1444885;90;20390;-83
2022/08/09 13:21:25;;;;;;;;;;;;;;;30.87;36.17;100696.22;1451868;90;20772;-83
2022/08/09 13:24:00;;;;;;;;;;;;;;;30.46;36.50;100704.44;1439476;90;20405;-83
2022/08/09 13:26:45;;;;;;;;;;;;;;;30.01;36.98;100701.09;1446481;90;20816;-83
2022/08/09 13:29:14;;;;;;;;;;;;;;;30.34;36.45;100692.98;1451160;90;21584;-83
2022/08/09 13:32:02;;;;;;;;;;;;;;;30.22;36.95;100699.26;1452534;90;20339;-84
2022/08/09 13:34:30;;;;;;;;;;;;;;;30.06;37.68;100701.92;1448403;90;20242;-84
2022/08/09 13:37:01;;;;;;;;;;;;;;;29.97;37.37;100699.45;1444225;90;20369;-83
2022/08/09 13:39:28;;;;;;;;;;;;;;;29.70;37.42;100700.23;1439123;90;20404;-83
2022/08/09 13:42:03;;;;;;;;;;;;;;;29.60;38.07;100696.33;1445262;90;20353;-83
2022/08/09 13:44:30;;;;;;;;;;;;;;;29.74;38.26;100697.23;1442024;90;20762;-85
2022/08/09 13:46:55;;;;;;;;;;;;;;;29.31;37.68;100701.40;1442085;90;20243;-83
2022/08/09 13:49:21;;;;;;;;;;;;;;;29.76;37.31;100701.33;1436121;90;20360;-83
2022/08/09 13:51:47;;;;;;;;;;;;;;;30.09;36.75;100700.02;1453115;90;20808;-84
2022/08/09 13:54:14;;;;;;;;;;;;;;;30.57;35.82;100703.34;1452357;90;20295;-83
2022/08/09 13:56:40;;;;;;;;;;;;;;;30.58;35.68;100698.17;1443190;90;20279;-83
2022/08/09 13:59:06;;;;;;;;;;;;;;;31.08;35.26;100705.20;1452941;90;20270;-83
2022/08/09 14:01:31;;;;;;;;;;;;;;;31.62;34.15;100701.73;1453006;89;20307;-83
2022/08/09 14:03:57;;;;;;;;;;;;;;;31.41;33.28;100711.94;1452318;90;20273;-80
2022/08/09 14:06:23;;;;;;;;;;;;;;;31.12;33.46;100701.36;1454528;90;20316;-81
2022/08/09 14:08:49;;;;;;;;;;;;;;;31.41;33.59;100705.09;1453566;90;20275;-81
2022/08/09 14:11:16;;;;;;;;;;;;;;;31.94;32.83;100696.91;1451540;89;20874;-81
2022/08/09 14:13:42;;;;;;;;;;;;;;;31.73;32.91;100701.11;1451709;89;20326;-80
2022/08/09 14:16:11;;;;;;;;;;;;;;;32.07;32.78;100696.28;1456035;89;20286;-81
2022/08/09 14:18:40;;;;;;;;;;;;;;;32.30;31.97;100702.95;1450892;90;20287;-80
2022/08/09 14:21:07;;;;;;;;;;;;;;;31.95;31.97;100698.01;1444906;90;20242;-81
2022/08/09 14:23:33;;;;;;;;;;;;;;;32.35;32.14;100706.47;1451042;89;20404;-80
2022/08/09 14:25:59;;;;;;;;;;;;;;;32.22;31.95;100699.45;1448582;89;20279;-81
2022/08/09 14:28:25;;;;;;;;;;;;;;;32.61;31.26;100702.17;1447239;89;20242;-81
2022/08/09 14:30:51;;;;;;;;;;;;;;;32.60;31.15;100706.02;1446419;89;20285;-81
2022/08/09 14:33:18;;;;;;;;;;;;;;;32.27;31.16;100711.73;1447957;90;20390;-81